createdAt,value
2018-02-09T00:00:23.629Z,0
2018-02-09T00:01:23.437Z,0
2018-02-09T00:02:23.205Z,0
2018-02-09T00:03:23.472Z,0
2018-02-09T00:04:23.234Z,0
2018-02-09T00:05:23.498Z,0
2018-02-09T00:06:23.513Z,0
2018-02-09T00:07:23.525Z,0
2018-02-09T00:39:36.248Z,0
2018-02-09T00:40:17.778Z,0
2018-02-09T00:41:18.047Z,0
2018-02-09T00:42:17.810Z,0
2018-02-09T00:43:17.580Z,0
2018-02-09T00:44:18.085Z,0
2018-02-09T00:45:17.849Z,0
2018-02-09T00:46:17.859Z,0
2018-02-09T00:47:17.873Z,0
2018-02-09T00:48:17.890Z,0
2018-02-09T00:49:18.153Z,0
2018-02-09T00:50:17.413Z,0
2018-02-09T00:51:17.981Z,0
2018-02-09T00:52:17.952Z,0
2018-02-09T00:53:18.208Z,0
2018-02-09T00:54:17.970Z,0
2018-02-09T00:55:17.981Z,0
2018-02-09T00:56:18.009Z,0
2018-02-09T00:57:18.014Z,0
2018-02-09T00:58:17.775Z,0
2018-02-09T00:59:17.837Z,0
2018-02-09T01:00:18.301Z,0
2018-02-09T01:01:17.814Z,0
2018-02-09T01:02:18.333Z,0
2018-02-09T01:03:18.344Z,0
2018-02-09T01:04:18.122Z,0
2018-02-09T01:05:17.869Z,0
2018-02-09T01:06:18.131Z,0
2018-02-09T01:07:18.152Z,0
2018-02-09T01:08:18.170Z,0
2018-02-09T01:09:18.544Z,0
2018-02-09T01:10:18.190Z,0
2018-02-09T01:11:18.253Z,0
2018-02-09T01:12:18.468Z,0
2018-02-09T01:13:17.976Z,0
2018-02-09T01:14:18.304Z,0
2018-02-09T01:15:18.015Z,0
2018-02-09T01:16:18.268Z,0
2018-02-09T01:17:18.029Z,0
2018-02-09T01:18:18.296Z,0
2018-02-09T01:19:18.564Z,0
2018-02-09T01:20:18.326Z,0
2018-02-09T01:21:18.088Z,0
2018-02-09T01:22:18.356Z,0
2018-02-09T01:23:18.617Z,0
2018-02-09T01:24:18.381Z,0
2018-02-09T01:25:18.643Z,0
2018-02-09T01:26:18.157Z,0
2018-02-09T01:27:18.668Z,0
2018-02-09T01:28:18.437Z,0
2018-02-09T01:29:18.243Z,0
2018-02-09T01:30:18.711Z,0
2018-02-09T01:31:18.240Z,0
2018-02-09T01:32:18.487Z,0
2018-02-09T01:33:18.002Z,0
2018-02-09T01:34:18.520Z,0
2018-02-09T01:35:18.278Z,0
2018-02-09T01:36:18.542Z,0
2018-02-09T01:37:18.053Z,0
2018-02-09T01:38:18.827Z,0
2018-02-09T01:39:18.331Z,0
2018-02-09T01:40:18.362Z,0
2018-02-09T01:41:18.108Z,0
2018-02-09T01:42:18.881Z,0
2018-02-09T01:43:18.639Z,0
2018-02-09T01:44:18.655Z,0
2018-02-09T01:45:18.738Z,0
2018-02-09T01:46:18.933Z,0
2018-02-09T01:47:18.696Z,0
2018-02-09T01:48:18.702Z,0
2018-02-09T01:49:18.722Z,0
2018-02-09T01:50:18.735Z,0
2018-02-09T01:51:18.246Z,0
2018-02-09T01:52:18.508Z,0
2018-02-09T01:53:18.776Z,0
2018-02-09T01:54:18.537Z,0
2018-02-09T01:55:18.299Z,0
2018-02-09T01:56:19.075Z,0
2018-02-09T01:57:19.083Z,0
2018-02-09T01:58:18.842Z,0
2018-02-09T01:59:19.105Z,0
2018-02-09T02:00:19.168Z,0
2018-02-09T02:01:18.881Z,0
2018-02-09T02:02:19.152Z,0
2018-02-09T02:03:18.909Z,0
2018-02-09T02:04:18.925Z,0
2018-02-09T02:05:18.690Z,0
2018-02-09T02:06:18.446Z,0
2018-02-09T02:07:18.968Z,0
2018-02-09T02:08:18.978Z,0
2018-02-09T02:09:18.993Z,0
2018-02-09T02:10:19.255Z,0
2018-02-09T02:11:18.770Z,0
2018-02-09T02:12:19.031Z,0
2018-02-09T02:13:19.052Z,0
2018-02-09T02:14:19.059Z,0
2018-02-09T02:15:19.377Z,0
2018-02-09T02:16:18.844Z,0
2018-02-09T02:17:19.097Z,0
2018-02-09T02:18:19.372Z,0
2018-02-09T02:19:18.875Z,0
2018-02-09T02:20:18.734Z,0
2018-02-09T02:21:18.913Z,0
2018-02-09T02:22:19.423Z,0
2018-02-09T02:23:19.440Z,0
2018-02-09T02:24:19.197Z,0
2018-02-09T02:25:18.705Z,0
2018-02-09T02:26:18.971Z,0
2018-02-09T02:27:18.982Z,0
2018-02-09T02:28:19.281Z,0
2018-02-09T02:29:19.515Z,0
2018-02-09T02:30:19.329Z,0
2018-02-09T02:31:19.319Z,0
2018-02-09T02:32:19.351Z,0
2018-02-09T02:33:19.065Z,0
2018-02-09T02:34:19.073Z,0
2018-02-09T02:35:19.339Z,0
2018-02-09T02:36:19.358Z,0
2018-02-09T02:37:19.374Z,0
2018-02-09T02:38:19.387Z,0
2018-02-09T02:39:19.651Z,0
2018-02-09T02:40:19.409Z,0
2018-02-09T02:41:19.423Z,0
2018-02-09T02:42:19.686Z,0
2018-02-09T02:43:19.711Z,0
2018-02-09T02:44:19.482Z,0
2018-02-09T02:45:19.785Z,0
2018-02-09T02:46:19.751Z,0
2018-02-09T02:47:19.510Z,0
2018-02-09T02:48:19.526Z,0
2018-02-09T02:49:19.536Z,0
2018-02-09T02:50:19.800Z,0
2018-02-09T02:51:19.560Z,0
2018-02-09T02:52:19.332Z,0
2018-02-09T02:53:19.586Z,0
2018-02-09T02:54:19.607Z,0
2018-02-09T02:55:19.613Z,0
2018-02-09T02:56:19.381Z,0
2018-02-09T02:57:19.133Z,0
2018-02-09T02:58:19.665Z,0
2018-02-09T02:59:19.417Z,0
2018-02-09T03:00:19.731Z,0
2018-02-09T03:01:19.700Z,0
2018-02-09T03:02:19.455Z,0
2018-02-09T03:03:19.722Z,0
2018-02-09T03:04:19.485Z,0
2018-02-09T03:05:19.493Z,0
2018-02-09T03:06:19.764Z,0
2018-02-09T03:07:19.771Z,0
2018-02-09T03:08:19.788Z,0
2018-02-09T03:09:20.048Z,0
2018-02-09T03:10:19.814Z,0
2018-02-09T03:11:19.834Z,0
2018-02-09T03:12:19.843Z,0
2018-02-09T03:13:19.596Z,0
2018-02-09T03:14:19.359Z,0
2018-02-09T03:15:19.421Z,0
2018-02-09T03:16:20.145Z,0
2018-02-09T03:17:19.911Z,0
2018-02-09T03:18:19.422Z,0
2018-02-09T03:19:19.937Z,0
2018-02-09T03:20:19.955Z,0
2018-02-09T03:21:20.220Z,0
2018-02-09T03:22:19.726Z,0
2018-02-09T03:23:19.996Z,0
2018-02-09T03:24:20.056Z,0
2018-02-09T03:25:20.281Z,0
2018-02-09T03:26:19.526Z,0
2018-02-09T03:27:20.297Z,0
2018-02-09T03:28:19.818Z,0
2018-02-09T03:29:20.072Z,0
2018-02-09T03:30:20.404Z,0
2018-02-09T03:31:20.104Z,0
2018-02-09T03:32:20.370Z,0
2018-02-09T03:33:20.129Z,0
2018-02-09T03:34:20.392Z,0
2018-02-09T03:35:19.903Z,0
2018-02-09T03:36:20.223Z,0
2018-02-09T03:37:20.186Z,0
2018-02-09T03:38:19.944Z,0
2018-02-09T03:39:20.207Z,0
2018-02-09T03:40:20.481Z,0
2018-02-09T03:41:20.234Z,0
2018-02-09T03:42:19.993Z,0
2018-02-09T03:43:19.760Z,0
2018-02-09T03:44:20.020Z,0
2018-02-09T03:45:20.437Z,0
2018-02-09T03:46:20.550Z,0
2018-02-09T03:47:19.820Z,0
2018-02-09T03:48:20.331Z,0
2018-02-09T03:49:20.609Z,0
2018-02-09T03:50:20.607Z,0
2018-02-09T03:51:20.632Z,0
2018-02-09T03:52:20.381Z,0
2018-02-09T03:53:19.892Z,0
2018-02-09T03:54:20.152Z,0
2018-02-09T03:55:20.181Z,0
2018-02-09T03:56:20.689Z,0
2018-02-09T03:57:20.200Z,0
2018-02-09T03:58:20.206Z,0
2018-02-09T03:59:19.972Z,0
2018-02-09T04:00:20.740Z,0
2018-02-09T04:01:20.501Z,0
2018-02-09T04:02:20.310Z,0
2018-02-09T04:03:20.777Z,0
2018-02-09T04:04:20.557Z,0
2018-02-09T04:05:20.295Z,0
2018-02-09T04:06:20.565Z,0
2018-02-09T04:07:20.578Z,0
2018-02-09T04:08:20.593Z,0
2018-02-09T04:09:20.350Z,0
2018-02-09T04:10:20.369Z,0
2018-02-09T04:11:20.893Z,0
2018-02-09T04:12:20.644Z,0
2018-02-09T04:13:20.658Z,0
2018-02-09T04:14:20.670Z,0
2018-02-09T04:15:20.698Z,0
2018-02-09T04:16:20.692Z,0
2018-02-09T04:17:20.758Z,0
2018-02-09T04:18:20.976Z,0
2018-02-09T04:19:20.495Z,0
2018-02-09T04:20:20.488Z,0
2018-02-09T04:21:20.508Z,0
2018-02-09T04:22:20.522Z,0
2018-02-09T04:23:21.044Z,0
2018-02-09T04:24:20.796Z,0
2018-02-09T04:25:21.059Z,0
2018-02-09T04:26:20.573Z,0
2018-02-09T04:27:20.580Z,0
2018-02-09T04:28:21.098Z,0
2018-02-09T04:29:21.111Z,0
2018-02-09T04:30:20.873Z,0
2018-02-09T04:31:20.941Z,0
2018-02-09T04:32:21.199Z,0
2018-02-09T04:33:20.911Z,0
2018-02-09T04:34:21.174Z,0
2018-02-09T04:35:20.936Z,0
2018-02-09T04:36:20.696Z,0
2018-02-09T04:37:20.959Z,0
2018-02-09T04:38:20.974Z,0
2018-02-09T04:39:20.744Z,0
2018-02-09T04:40:21.261Z,0
2018-02-09T04:41:20.764Z,0
2018-02-09T04:42:21.290Z,0
2018-02-09T04:43:21.039Z,0
2018-02-09T04:44:21.053Z,0
2018-02-09T04:45:21.322Z,0
2018-02-09T04:46:21.083Z,0
2018-02-09T04:47:20.891Z,0
2018-02-09T04:48:20.854Z,0
2018-02-09T04:49:20.868Z,0
2018-02-09T04:50:21.132Z,0
2018-02-09T04:51:21.153Z,0
2018-02-09T04:52:21.164Z,0
2018-02-09T04:53:21.168Z,0
2018-02-09T04:54:21.185Z,0
2018-02-09T04:55:21.448Z,0
2018-02-09T04:56:21.211Z,0
2018-02-09T04:57:21.223Z,0
2018-02-09T04:58:21.248Z,0
2018-02-09T04:59:21.000Z,0
2018-02-09T05:00:21.516Z,0
2018-02-09T05:01:21.275Z,0
2018-02-09T05:02:21.284Z,0
2018-02-09T05:03:21.051Z,0
2018-02-09T05:04:21.114Z,0
2018-02-09T05:05:21.325Z,0
2018-02-09T05:06:21.109Z,0
2018-02-09T05:07:21.354Z,0
2018-02-09T05:08:21.368Z,0
2018-02-09T05:09:21.129Z,0
2018-02-09T05:10:21.447Z,0
2018-02-09T05:11:21.156Z,0
2018-02-09T05:12:21.421Z,0
2018-02-09T05:13:21.685Z,0
2018-02-09T05:14:21.700Z,0
2018-02-09T05:15:21.466Z,0
2018-02-09T05:16:21.470Z,0
2018-02-09T05:17:21.517Z,0
2018-02-09T05:18:21.754Z,0
2018-02-09T05:19:21.570Z,0
2018-02-09T05:20:21.272Z,0
2018-02-09T05:21:21.791Z,0
2018-02-09T05:22:21.550Z,0
2018-02-09T05:23:21.316Z,0
2018-02-09T05:24:21.076Z,0
2018-02-09T05:25:21.589Z,0
2018-02-09T05:26:21.867Z,0
2018-02-09T05:27:21.372Z,0
2018-02-09T05:28:21.880Z,0
2018-02-09T05:29:21.644Z,0
2018-02-09T05:30:21.659Z,0
2018-02-09T05:31:21.695Z,0
2018-02-09T05:32:21.684Z,0
2018-02-09T05:33:21.971Z,0
2018-02-09T05:34:21.225Z,0
2018-02-09T05:35:21.969Z,0
2018-02-09T05:36:21.740Z,0
2018-02-09T05:37:21.747Z,0
2018-02-09T05:38:21.558Z,0
2018-02-09T05:39:21.272Z,0
2018-02-09T05:40:22.038Z,0
2018-02-09T05:41:21.875Z,0
2018-02-09T05:42:22.077Z,0
2018-02-09T05:43:21.832Z,0
2018-02-09T05:44:22.094Z,0
2018-02-09T05:45:21.651Z,0
2018-02-09T05:46:21.872Z,0
2018-02-09T05:47:21.628Z,0
2018-02-09T05:48:21.897Z,0
2018-02-09T05:49:21.735Z,0
2018-02-09T05:50:21.672Z,0
2018-02-09T05:51:21.938Z,0
2018-02-09T05:52:21.951Z,0
2018-02-09T05:53:22.008Z,0
2018-02-09T05:54:21.724Z,0
2018-02-09T05:55:22.241Z,0
2018-02-09T05:56:22.276Z,0
2018-02-09T05:57:22.022Z,0
2018-02-09T05:58:21.781Z,0
2018-02-09T05:59:22.301Z,0
2018-02-09T06:00:22.309Z,0
2018-02-09T06:01:21.820Z,0
2018-02-09T06:02:22.078Z,0
2018-02-09T06:03:21.841Z,0
2018-02-09T06:04:22.109Z,0
2018-02-09T06:05:22.128Z,0
2018-02-09T06:06:22.379Z,0
2018-02-09T06:07:22.402Z,0
2018-02-09T06:08:22.563Z,0
2018-02-09T06:09:22.176Z,4
2018-02-09T06:10:22.191Z,4
2018-02-09T06:11:22.204Z,0
2018-02-09T06:12:21.965Z,4
2018-02-09T06:13:22.221Z,4
2018-02-09T06:14:21.989Z,4
2018-02-09T06:15:22.267Z,4
2018-02-09T06:16:22.263Z,8
2018-02-09T06:17:22.529Z,4
2018-02-09T06:18:22.292Z,8
2018-02-09T06:19:22.555Z,8
2018-02-09T06:20:22.320Z,12
2018-02-09T06:21:22.339Z,12
2018-02-09T06:22:22.596Z,12
2018-02-09T06:23:22.096Z,12
2018-02-09T06:24:22.414Z,12
2018-02-09T06:25:22.141Z,20
2018-02-09T06:26:22.686Z,20
2018-02-09T06:27:22.415Z,20
2018-02-09T06:28:22.684Z,24
2018-02-09T06:29:22.540Z,24
2018-02-09T06:30:22.195Z,28
2018-02-09T06:31:22.717Z,32
2018-02-09T06:32:22.732Z,36
2018-02-09T06:33:22.489Z,36
2018-02-09T06:34:22.769Z,44
2018-02-09T06:35:22.520Z,44
2018-02-09T06:36:22.785Z,48
2018-02-09T06:37:22.545Z,52
2018-02-09T06:38:22.358Z,56
2018-02-09T06:39:22.385Z,60
2018-02-09T06:40:22.322Z,64
2018-02-09T06:41:22.591Z,68
2018-02-09T06:42:22.354Z,72
2018-02-09T06:43:22.621Z,76
2018-02-09T06:44:22.633Z,80
2018-02-09T06:45:22.647Z,84
2018-02-09T06:46:22.408Z,92
2018-02-09T06:47:22.729Z,96
2018-02-09T06:48:22.939Z,100
2018-02-09T06:49:22.750Z,108
2018-02-09T06:50:22.713Z,112
2018-02-09T06:51:22.473Z,116
2018-02-09T06:52:22.505Z,128
2018-02-09T06:53:23.024Z,132
2018-02-09T06:54:22.517Z,140
2018-02-09T06:55:22.784Z,152
2018-02-09T06:56:22.793Z,160
2018-02-09T06:57:22.790Z,172
2018-02-09T06:58:22.807Z,180
2018-02-09T06:59:23.065Z,188
2018-02-09T07:00:22.834Z,196
2018-02-09T07:01:23.110Z,204
2018-02-09T07:02:23.128Z,212
2018-02-09T07:03:23.136Z,216
2018-02-09T07:04:22.956Z,228
2018-02-09T07:05:23.161Z,240
2018-02-09T07:06:22.428Z,248
2018-02-09T07:07:22.945Z,260
2018-02-09T07:08:23.203Z,272
2018-02-09T07:09:22.714Z,284
2018-02-09T07:10:22.976Z,296
2018-02-09T07:11:23.242Z,312
2018-02-09T07:12:23.005Z,320
2018-02-09T07:13:23.271Z,336
2018-02-09T07:14:23.031Z,348
2018-02-09T07:15:23.405Z,360
2018-02-09T07:16:23.311Z,372
2018-02-09T07:17:23.329Z,376
2018-02-09T07:18:23.336Z,380
2018-02-09T07:19:22.896Z,396
2018-02-09T07:20:22.867Z,412
2018-02-09T07:21:23.377Z,432
2018-02-09T07:22:22.884Z,444
2018-02-09T07:23:22.994Z,456
2018-02-09T07:24:23.173Z,472
2018-02-09T07:25:22.931Z,488
2018-02-09T07:26:23.201Z,508
2018-02-09T07:27:22.953Z,528
2018-02-09T07:28:23.471Z,548
2018-02-09T07:29:23.505Z,564
2018-02-09T07:30:23.240Z,580
2018-02-09T07:31:22.996Z,596
2018-02-09T07:32:23.009Z,612
2018-02-09T07:33:23.275Z,632
2018-02-09T07:34:22.842Z,652
2018-02-09T07:35:23.304Z,676
2018-02-09T07:36:23.073Z,704
2018-02-09T07:37:23.088Z,732
2018-02-09T07:38:23.359Z,756
2018-02-09T07:39:23.358Z,768
2018-02-09T07:40:23.372Z,788
2018-02-09T07:41:23.392Z,796
2018-02-09T07:42:23.399Z,804
2018-02-09T07:43:23.416Z,808
2018-02-09T07:44:23.175Z,816
2018-02-09T07:45:23.437Z,836
2018-02-09T07:46:23.202Z,856
2018-02-09T07:47:23.473Z,872
2018-02-09T07:48:23.480Z,876
2018-02-09T07:49:23.823Z,876
2018-02-09T07:50:23.050Z,868
2018-02-09T07:51:23.520Z,864
2018-02-09T07:52:23.044Z,864
2018-02-09T07:53:23.549Z,872
2018-02-09T07:54:23.052Z,888
2018-02-09T07:55:23.822Z,908
2018-02-09T07:56:23.695Z,936
2018-02-09T07:57:23.603Z,960
2018-02-09T07:58:23.961Z,980
2018-02-09T07:59:23.633Z,992
2018-02-09T08:00:23.641Z,1016
2018-02-09T08:01:23.904Z,1036
2018-02-09T08:02:23.413Z,1048
2018-02-09T08:03:23.686Z,1060
2018-02-09T08:04:23.693Z,1076
2018-02-09T08:05:23.713Z,1088
2018-02-09T08:06:23.718Z,1108
2018-02-09T08:07:23.732Z,1120
2018-02-09T08:08:23.753Z,1136
2018-02-09T08:09:23.762Z,1152
2018-02-09T08:10:23.268Z,1176
2018-02-09T08:11:23.780Z,1184
2018-02-09T08:12:23.301Z,1184
2018-02-09T08:13:23.556Z,1188
2018-02-09T08:14:24.084Z,1188
2018-02-09T08:15:23.634Z,1204
2018-02-09T08:16:23.608Z,1220
2018-02-09T08:17:23.868Z,1232
2018-02-09T08:18:23.627Z,1240
2018-02-09T08:19:23.389Z,1244
2018-02-09T08:20:23.920Z,1252
2018-02-09T08:21:23.966Z,1260
2018-02-09T08:22:23.433Z,1264
2018-02-09T08:23:23.695Z,1272
2018-02-09T08:24:24.346Z,1280
2018-02-09T08:25:23.982Z,1292
2018-02-09T08:26:23.988Z,1324
2018-02-09T08:27:24.003Z,1360
2018-02-09T08:28:24.014Z,1404
2018-02-09T08:29:24.295Z,1440
2018-02-09T08:30:24.336Z,1468
2018-02-09T08:31:24.048Z,1492
2018-02-09T08:32:24.315Z,1512
2018-02-09T08:33:24.079Z,1532
2018-02-09T08:34:24.095Z,1552
2018-02-09T08:35:24.107Z,1572
2018-02-09T08:36:24.375Z,1592
2018-02-09T08:37:23.905Z,1604
2018-02-09T08:38:23.889Z,1604
2018-02-09T08:39:24.160Z,1604
2018-02-09T08:40:24.172Z,1612
2018-02-09T08:41:23.683Z,1616
2018-02-09T08:42:24.461Z,1616
2018-02-09T08:43:24.215Z,1616
2018-02-09T08:44:24.224Z,1628
2018-02-09T08:45:24.290Z,1648
2018-02-09T08:46:24.001Z,1676
2018-02-09T08:47:23.768Z,1716
2018-02-09T08:48:24.546Z,1744
2018-02-09T08:49:24.561Z,1776
2018-02-09T08:50:24.308Z,1812
2018-02-09T08:51:24.573Z,1844
2018-02-09T08:52:23.834Z,1864
2018-02-09T08:53:24.611Z,1880
2018-02-09T08:54:24.113Z,1884
2018-02-09T08:55:24.376Z,1852
2018-02-09T08:56:24.641Z,1832
2018-02-09T08:57:24.403Z,1836
2018-02-09T08:58:24.165Z,1828
2018-02-09T08:59:24.586Z,1816
2018-02-09T09:00:24.749Z,1824
2018-02-09T09:01:24.468Z,1848
2018-02-09T09:02:24.471Z,1880
2018-02-09T09:03:24.229Z,1924
2018-02-09T09:04:24.269Z,1972
2018-02-09T09:05:24.524Z,2016
2018-02-09T09:06:24.272Z,2052
2018-02-09T09:07:24.283Z,2072
2018-02-09T09:08:24.299Z,2092
2018-02-09T09:09:24.563Z,2124
2018-02-09T09:10:24.845Z,2152
2018-02-09T09:11:24.849Z,2184
2018-02-09T09:12:24.610Z,2188
2018-02-09T09:13:24.615Z,2172
2018-02-09T09:14:24.630Z,2140
2018-02-09T09:15:24.649Z,2112
2018-02-09T09:16:24.709Z,2096
2018-02-09T09:17:24.421Z,2084
2018-02-09T09:18:24.434Z,2068
2018-02-09T09:19:24.696Z,2076
2018-02-09T09:20:24.965Z,2108
2018-02-09T09:21:24.727Z,2152
2018-02-09T09:22:24.488Z,2204
2018-02-09T09:23:24.754Z,2248
2018-02-09T09:24:24.777Z,2296
2018-02-09T09:25:24.791Z,2348
2018-02-09T09:26:24.394Z,2380
2018-02-09T09:27:25.063Z,2412
2018-02-09T09:28:24.322Z,2440
2018-02-09T09:29:25.092Z,2480
2018-02-09T09:30:24.598Z,2560
2018-02-09T09:31:24.659Z,2644
2018-02-09T09:32:25.134Z,2716
2018-02-09T09:33:24.889Z,2768
2018-02-09T09:34:24.914Z,2824
2018-02-09T09:35:24.967Z,2884
2018-02-09T09:36:24.941Z,2940
2018-02-09T09:37:24.701Z,3020
2018-02-09T09:38:25.223Z,3116
2018-02-09T09:39:25.052Z,3216
2018-02-09T09:40:25.275Z,3316
2018-02-09T09:41:24.502Z,3392
2018-02-09T09:42:25.273Z,3452
2018-02-09T09:43:25.284Z,3504
2018-02-09T09:44:24.548Z,3552
2018-02-09T09:45:25.317Z,3608
2018-02-09T09:46:25.130Z,3684
2018-02-09T09:47:25.344Z,3772
2018-02-09T09:48:25.360Z,3848
2018-02-09T09:49:24.876Z,3892
2018-02-09T09:50:25.159Z,3932
2018-02-09T09:51:25.402Z,3992
2018-02-09T09:52:25.425Z,4048
2018-02-09T09:53:25.454Z,4088
2018-02-09T09:54:25.453Z,4096
2018-02-09T09:55:25.203Z,4092
2018-02-09T09:56:25.475Z,4104
2018-02-09T09:57:25.237Z,4128
2018-02-09T09:58:25.255Z,4176
2018-02-09T09:59:24.764Z,4216
2018-02-09T10:00:25.544Z,4248
2018-02-09T10:01:25.100Z,4276
2018-02-09T10:02:25.558Z,4268
2018-02-09T10:03:25.066Z,4272
2018-02-09T10:04:25.334Z,4292
2018-02-09T10:05:24.846Z,4316
2018-02-09T10:06:25.113Z,4352
2018-02-09T10:07:25.130Z,4396
2018-02-09T10:08:25.398Z,4456
2018-02-09T10:09:25.664Z,4496
2018-02-09T10:10:25.180Z,4532
2018-02-09T10:11:24.934Z,4576
2018-02-09T10:12:25.197Z,4624
2018-02-09T10:13:25.465Z,4680
2018-02-09T10:14:25.224Z,4700
2018-02-09T10:15:25.237Z,4708
2018-02-09T10:16:25.408Z,4712
2018-02-09T10:17:25.528Z,4704
2018-02-09T10:18:25.296Z,4696
2018-02-09T10:19:25.297Z,4696
2018-02-09T10:20:25.313Z,4688
2018-02-09T10:21:25.832Z,4660
2018-02-09T10:22:25.342Z,4648
2018-02-09T10:23:25.610Z,4616
2018-02-09T10:24:25.371Z,4540
2018-02-09T10:25:25.386Z,4476
2018-02-09T10:26:25.395Z,4444
2018-02-09T10:27:25.916Z,4400
2018-02-09T10:28:25.174Z,4356
2018-02-09T10:29:25.438Z,4328
2018-02-09T10:30:25.700Z,4328
2018-02-09T10:31:25.272Z,4352
2018-02-09T10:32:25.489Z,4372
2018-02-09T10:33:25.749Z,4384
2018-02-09T10:34:25.509Z,4400
2018-02-09T10:35:25.530Z,4392
2018-02-09T10:36:25.796Z,4380
2018-02-09T10:37:25.806Z,4364
2018-02-09T10:38:25.567Z,4344
2018-02-09T10:39:26.107Z,4344
2018-02-09T10:40:25.602Z,4348
2018-02-09T10:41:25.869Z,4352
2018-02-09T10:42:25.620Z,4352
2018-02-09T10:43:25.888Z,4348
2018-02-09T10:44:25.653Z,4344
2018-02-09T10:45:25.924Z,4372
2018-02-09T10:46:25.990Z,4416
2018-02-09T10:47:25.708Z,4448
2018-02-09T10:48:26.224Z,4492
2018-02-09T10:49:25.988Z,4544
2018-02-09T10:50:26.253Z,4580
2018-02-09T10:51:26.123Z,4552
2018-02-09T10:52:25.780Z,4476
2018-02-09T10:53:26.294Z,4372
2018-02-09T10:54:26.316Z,4264
2018-02-09T10:55:26.320Z,4172
2018-02-09T10:56:26.088Z,4120
2018-02-09T10:57:25.851Z,4096
2018-02-09T10:58:25.621Z,4084
2018-02-09T10:59:25.903Z,4076
2018-02-09T11:00:26.151Z,4060
2018-02-09T11:01:26.467Z,4052
2018-02-09T11:02:25.940Z,4056
2018-02-09T11:03:25.937Z,4084
2018-02-09T11:04:26.212Z,4128
2018-02-09T11:05:26.477Z,4168
2018-02-09T11:06:25.988Z,4196
2018-02-09T11:07:25.995Z,4236
2018-02-09T11:08:26.015Z,4268
2018-02-09T11:09:25.774Z,4280
2018-02-09T11:10:26.293Z,4296
2018-02-09T11:11:25.807Z,4312
2018-02-09T11:12:26.071Z,4316
2018-02-09T11:13:26.087Z,4292
2018-02-09T11:14:26.353Z,4280
2018-02-09T11:15:26.116Z,4292
2018-02-09T11:16:26.132Z,4296
2018-02-09T11:17:26.192Z,4252
2018-02-09T11:18:26.211Z,4212
2018-02-09T11:19:26.679Z,4180
2018-02-09T11:20:26.203Z,4144
2018-02-09T11:21:26.450Z,4112
2018-02-09T11:22:26.216Z,4076
2018-02-09T11:23:26.530Z,4040
2018-02-09T11:24:26.260Z,3988
2018-02-09T11:25:26.008Z,3940
2018-02-09T11:26:26.534Z,3928
2018-02-09T11:27:26.789Z,3940
2018-02-09T11:28:26.318Z,3952
2018-02-09T11:29:26.319Z,3956
2018-02-09T11:30:26.580Z,3960
2018-02-09T11:31:26.852Z,3976
2018-02-09T11:32:26.367Z,4020
2018-02-09T11:33:26.884Z,4092
2018-02-09T11:34:26.912Z,4140
2018-02-09T11:35:26.655Z,4164
2018-02-09T11:36:26.179Z,4188
2018-02-09T11:37:26.693Z,4224
2018-02-09T11:38:26.452Z,4276
2018-02-09T11:39:26.711Z,4344
2018-02-09T11:40:26.480Z,4412
2018-02-09T11:41:26.994Z,4504
2018-02-09T11:42:26.766Z,4572
2018-02-09T11:43:26.537Z,4604
2018-02-09T11:44:26.538Z,4636
2018-02-09T11:45:26.303Z,4724
2018-02-09T11:46:26.824Z,4852
2018-02-09T11:47:26.579Z,4996
2018-02-09T11:48:27.102Z,5132
2018-02-09T11:49:27.177Z,5248
2018-02-09T11:50:26.623Z,5324
2018-02-09T11:51:26.889Z,5360
2018-02-09T11:52:26.649Z,5352
2018-02-09T11:53:26.920Z,5344
2018-02-09T11:54:26.935Z,5344
2018-02-09T11:55:27.273Z,5340
2018-02-09T11:56:27.215Z,5336
2018-02-09T11:57:26.980Z,5332
2018-02-09T11:58:26.996Z,5348
2018-02-09T11:59:26.759Z,5368
2018-02-09T12:00:27.274Z,5376
2018-02-09T12:01:26.784Z,5356
2018-02-09T12:02:27.048Z,5312
2018-02-09T12:03:27.066Z,5236
2018-02-09T12:04:27.089Z,5180
2018-02-09T12:05:26.848Z,5136
2018-02-09T12:06:27.158Z,5084
2018-02-09T12:07:26.874Z,4996
2018-02-09T12:08:26.885Z,4884
2018-02-09T12:09:27.411Z,4772
2018-02-09T12:10:27.429Z,4708
2018-02-09T12:11:26.683Z,4660
2018-02-09T12:12:27.201Z,4620
2018-02-09T12:13:27.219Z,4580
2018-02-09T12:14:26.979Z,4568
2018-02-09T12:15:26.743Z,4564
2018-02-09T12:16:26.757Z,4560
2018-02-09T12:17:27.025Z,4552
2018-02-09T12:18:27.545Z,4532
2018-02-09T12:19:27.056Z,4508
2018-02-09T12:20:27.566Z,4492
2018-02-09T12:21:27.396Z,4480
2018-02-09T12:22:26.846Z,4460
2018-02-09T12:23:27.363Z,4444
2018-02-09T12:24:27.127Z,4428
2018-02-09T12:25:27.647Z,4452
2018-02-09T12:26:27.408Z,4492
2018-02-09T12:27:27.426Z,4520
2018-02-09T12:28:26.933Z,4528
2018-02-09T12:29:27.207Z,4512
2018-02-09T12:30:27.469Z,4480
2018-02-09T12:31:27.231Z,4428
2018-02-09T12:32:27.512Z,4412
2018-02-09T12:33:27.255Z,4376
2018-02-09T12:34:27.279Z,4328
2018-02-09T12:35:27.591Z,4276
2018-02-09T12:36:27.859Z,4232
2018-02-09T12:37:27.071Z,4188
2018-02-09T12:38:27.588Z,4136
2018-02-09T12:39:27.100Z,4100
2018-02-09T12:40:27.393Z,4080
2018-02-09T12:41:27.132Z,4076
2018-02-09T12:42:27.653Z,4076
2018-02-09T12:43:27.415Z,4072
2018-02-09T12:44:27.680Z,4048
2018-02-09T12:45:27.697Z,4008
2018-02-09T12:46:27.461Z,3960
2018-02-09T12:47:27.733Z,3904
2018-02-09T12:48:27.762Z,3868
2018-02-09T12:49:28.041Z,3840
2018-02-09T12:50:27.519Z,3816
2018-02-09T12:51:27.335Z,3784
2018-02-09T12:52:27.301Z,3728
2018-02-09T12:53:27.318Z,3676
2018-02-09T12:54:27.596Z,3628
2018-02-09T12:55:27.598Z,3596
2018-02-09T12:56:27.863Z,3552
2018-02-09T12:57:28.142Z,3512
2018-02-09T12:58:28.148Z,3500
2018-02-09T12:59:27.408Z,3516
2018-02-09T13:00:27.676Z,3544
2018-02-09T13:01:28.201Z,3576
2018-02-09T13:02:27.455Z,3604
2018-02-09T13:03:27.717Z,3628
2018-02-09T13:04:27.985Z,3652
2018-02-09T13:05:28.261Z,3680
2018-02-09T13:06:28.323Z,3724
2018-02-09T13:07:27.780Z,3752
2018-02-09T13:08:28.105Z,3776
2018-02-09T13:09:27.882Z,3788
2018-02-09T13:10:27.828Z,3776
2018-02-09T13:11:27.843Z,3728
2018-02-09T13:12:28.114Z,3668
2018-02-09T13:13:27.621Z,3600
2018-02-09T13:14:27.892Z,3544
2018-02-09T13:15:28.173Z,3508
2018-02-09T13:16:27.924Z,3480
2018-02-09T13:17:28.197Z,3456
2018-02-09T13:18:28.205Z,3424
2018-02-09T13:19:28.484Z,3392
2018-02-09T13:20:27.727Z,3364
2018-02-09T13:21:28.045Z,3348
2018-02-09T13:22:28.008Z,3336
2018-02-09T13:23:28.022Z,3316
2018-02-09T13:24:28.544Z,3292
2018-02-09T13:25:28.055Z,3284
2018-02-09T13:26:28.324Z,3292
2018-02-09T13:27:27.828Z,3288
2018-02-09T13:28:28.096Z,3268
2018-02-09T13:29:27.858Z,3216
2018-02-09T13:30:28.378Z,3168
2018-02-09T13:31:28.424Z,3140
2018-02-09T13:32:28.411Z,3108
2018-02-09T13:33:28.422Z,3088
2018-02-09T13:34:28.191Z,3076
2018-02-09T13:35:28.459Z,3052
2018-02-09T13:36:28.727Z,3024
2018-02-09T13:37:28.232Z,2992
2018-02-09T13:38:28.758Z,2964
2018-02-09T13:39:28.025Z,2936
2018-02-09T13:40:28.853Z,2920
2018-02-09T13:41:28.289Z,2908
2018-02-09T13:42:28.809Z,2896
2018-02-09T13:43:28.821Z,2900
2018-02-09T13:44:28.592Z,2884
2018-02-09T13:45:28.602Z,2848
2018-02-09T13:46:28.941Z,2804
2018-02-09T13:47:28.897Z,2756
2018-02-09T13:48:28.652Z,2708
2018-02-09T13:49:28.911Z,2656
2018-02-09T13:50:28.425Z,2624
2018-02-09T13:51:28.689Z,2604
2018-02-09T13:52:28.246Z,2584
2018-02-09T13:53:28.227Z,2560
2018-02-09T13:54:28.494Z,2540
2018-02-09T13:55:28.867Z,2512
2018-02-09T13:56:28.516Z,2476
2018-02-09T13:57:28.791Z,2424
2018-02-09T13:58:28.547Z,2388
2018-02-09T13:59:28.819Z,2348
2018-02-09T14:00:28.600Z,2308
2018-02-09T14:01:28.342Z,2284
2018-02-09T14:02:28.609Z,2256
2018-02-09T14:03:28.626Z,2228
2018-02-09T14:04:28.641Z,2200
2018-02-09T14:05:28.901Z,2172
2018-02-09T14:06:29.159Z,2148
2018-02-09T14:07:28.433Z,2120
2018-02-09T14:08:28.705Z,2104
2018-02-09T14:09:28.968Z,2096
2018-02-09T14:10:28.776Z,2088
2018-02-09T14:11:28.998Z,2084
2018-02-09T14:12:29.000Z,2080
2018-02-09T14:13:29.037Z,2068
2018-02-09T14:14:28.785Z,2056
2018-02-09T14:15:28.816Z,2032
2018-02-09T14:16:28.819Z,2000
2018-02-09T14:17:28.825Z,1976
2018-02-09T14:18:28.586Z,1956
2018-02-09T14:19:28.855Z,1936
2018-02-09T14:20:29.118Z,1924
2018-02-09T14:21:28.935Z,1912
2018-02-09T14:22:28.885Z,1904
2018-02-09T14:23:29.149Z,1900
2018-02-09T14:24:29.168Z,1888
2018-02-09T14:41:19.722Z,1368
2018-02-09T14:42:19.987Z,1348
2018-02-09T14:43:19.516Z,1340
2018-02-09T14:44:19.738Z,1332